createdAt,value
2018-04-30T00:00:56.052Z,61.18
2018-04-30T00:01:56.043Z,60.19
2018-04-30T00:02:56.034Z,62.40
2018-04-30T00:03:56.026Z,60.96
2018-04-30T00:04:56.017Z,61.44
2018-04-30T00:05:56.011Z,62.49
2018-04-30T00:06:56.007Z,62.77
2018-04-30T00:07:55.994Z,62.49
2018-04-30T00:08:55.988Z,63.06
2018-04-30T00:09:55.979Z,62.49
2018-04-30T00:10:55.971Z,62.01
2018-04-30T00:11:55.963Z,64.12
2018-04-30T00:12:55.956Z,63.26
2018-04-30T00:13:55.947Z,61.82
2018-04-30T00:14:55.940Z,61.72
2018-04-30T00:15:55.932Z,62.49
2018-04-30T00:16:55.926Z,60.29
2018-04-30T00:17:55.914Z,62.97
2018-04-30T00:18:55.908Z,63.06
2018-04-30T00:19:55.899Z,62.49
2018-04-30T00:20:55.892Z,63.03
2018-04-30T00:21:55.884Z,64.18
2018-04-30T00:22:55.875Z,63.35
2018-04-30T00:23:55.866Z,64.09
2018-04-30T00:24:55.858Z,63.51
2018-04-30T00:25:55.851Z,64.56
2018-04-30T00:26:55.846Z,64.95
2018-04-30T00:27:55.836Z,64.75
2018-04-30T00:28:55.831Z,64.75
2018-04-30T00:29:55.821Z,63.32
2018-04-30T00:30:55.811Z,64.47
2018-04-30T00:31:55.804Z,65.23
2018-04-30T00:32:55.794Z,66.09
2018-04-30T00:33:55.789Z,65.81
2018-04-30T00:34:55.779Z,65.23
2018-04-30T00:35:55.773Z,64.85
2018-04-30T00:36:55.764Z,64.66
2018-04-30T00:37:55.755Z,65.42
2018-04-30T00:38:55.746Z,65.61
2018-04-30T00:39:55.740Z,65.90
2018-04-30T00:40:55.733Z,66.57
2018-04-30T00:41:55.721Z,66.67
2018-04-30T00:42:55.713Z,67.53
2018-04-30T00:43:55.704Z,67.24
2018-04-30T00:44:55.696Z,67.72
2018-04-30T00:45:55.687Z,67.91
2018-04-30T00:46:55.681Z,68.39
2018-04-30T00:47:55.676Z,67.63
2018-04-30T00:48:55.667Z,68.39
2018-04-30T00:49:55.657Z,67.72
2018-04-30T00:50:55.655Z,67.40
2018-04-30T00:51:55.640Z,68.26
2018-04-30T00:52:55.633Z,68.74
2018-04-30T00:53:55.622Z,69.41
2018-04-30T00:54:55.618Z,68.84
2018-04-30T00:55:55.608Z,69.60
2018-04-30T00:56:55.601Z,69.70
2018-04-30T00:57:55.589Z,69.98
2018-04-30T00:58:55.584Z,69.98
2018-04-30T00:59:55.575Z,71.32
2018-04-30T01:00:55.568Z,71.13
2018-04-30T01:01:55.557Z,73.00
2018-04-30T01:02:55.546Z,73.19
2018-04-30T01:03:55.539Z,73.67
2018-04-30T01:04:55.532Z,75.10
2018-04-30T01:05:55.523Z,75.68
2018-04-30T01:06:55.512Z,75.39
2018-04-30T01:07:55.507Z,75.49
2018-04-30T01:08:55.499Z,76.54
2018-04-30T01:09:55.495Z,75.01
2018-04-30T01:10:55.484Z,75.01
2018-04-30T01:11:55.475Z,75.68
2018-04-30T01:12:55.466Z,76.54
2018-04-30T01:13:55.466Z,75.68
2018-04-30T01:14:55.447Z,75.68
2018-04-30T01:15:55.443Z,75.01
2018-04-30T01:16:55.432Z,74.15
2018-04-30T01:17:55.424Z,73.10
2018-04-30T01:18:55.416Z,74.05
2018-04-30T01:19:55.409Z,72.75
2018-04-30T01:20:55.399Z,72.28
2018-04-30T01:21:55.389Z,70.84
2018-04-30T01:22:55.388Z,72.08
2018-04-30T01:23:55.374Z,71.76
2018-04-30T01:24:55.365Z,73.19
2018-04-30T01:25:55.357Z,72.33
2018-04-30T01:26:55.347Z,73.29
2018-04-30T01:27:55.341Z,73.10
2018-04-30T01:28:55.334Z,71.86
2018-04-30T01:29:55.324Z,72.81
2018-04-30T01:30:55.319Z,74.82
2018-04-30T01:31:55.306Z,74.15
2018-04-30T01:32:55.298Z,74.63
2018-04-30T01:33:55.292Z,73.29
2018-04-30T01:34:55.281Z,72.33
2018-04-30T01:35:55.271Z,73.00
2018-04-30T01:36:55.266Z,72.20
2018-04-30T01:37:55.256Z,76.31
2018-04-30T01:38:55.247Z,74.11
2018-04-30T01:39:55.237Z,73.63
2018-04-30T01:40:55.230Z,74.21
2018-04-30T01:41:55.224Z,73.44
2018-04-30T01:42:55.215Z,74.98
2018-04-30T01:43:55.203Z,75.16
2018-04-30T01:44:55.197Z,73.44
2018-04-30T01:45:55.190Z,74.59
2018-04-30T01:46:55.175Z,73.54
2018-04-30T01:47:55.171Z,75.16
2018-04-30T01:48:55.160Z,77.17
2018-04-30T01:49:55.150Z,75.07
2018-04-30T01:50:55.144Z,74.55
2018-04-30T01:51:55.135Z,73.60
2018-04-30T01:52:55.129Z,74.65
2018-04-30T01:53:55.117Z,75.42
2018-04-30T01:54:55.108Z,76.56
2018-04-30T01:55:55.099Z,77.03
2018-04-30T01:56:55.089Z,76.84
2018-04-30T01:57:55.079Z,76.52
2018-04-30T01:58:55.074Z,77.57
2018-04-30T01:59:55.066Z,77.47
2018-04-30T02:00:55.055Z,77.86
2018-04-30T02:01:55.046Z,77.86
2018-04-30T02:02:55.035Z,77.76
2018-04-30T02:03:55.025Z,77.86
2018-04-30T02:04:55.018Z,77.76
2018-04-30T02:05:55.009Z,78.05
2018-04-30T02:06:55.000Z,79.86
2018-04-30T02:07:54.988Z,76.71
2018-04-30T02:08:54.983Z,76.81
2018-04-30T02:09:54.971Z,77.76
2018-04-30T02:10:54.967Z,78.52
2018-04-30T02:11:54.953Z,79.28
2018-04-30T02:12:54.946Z,77.86
2018-04-30T02:13:54.936Z,79.57
2018-04-30T02:14:54.929Z,78.62
2018-04-30T02:15:54.916Z,79.96
2018-04-30T02:16:54.908Z,80.24
2018-04-30T02:17:54.900Z,79.86
2018-04-30T02:18:54.892Z,81.29
2018-04-30T02:19:54.882Z,82.24
2018-04-30T02:20:54.876Z,81.77
2018-04-30T02:21:54.862Z,81.38
2018-04-30T02:22:54.854Z,82.06
2018-04-30T02:23:54.847Z,81.29
2018-04-30T02:24:54.842Z,82.34
2018-04-30T02:25:54.830Z,82.15
2018-04-30T02:26:54.815Z,82.82
2018-04-30T02:27:54.806Z,83.01
2018-04-30T02:28:54.798Z,83.01
2018-04-30T02:29:54.789Z,80.33
2018-04-30T02:30:54.778Z,79.77
2018-04-30T02:31:54.771Z,82.06
2018-04-30T02:32:54.762Z,81.10
2018-04-30T02:33:54.752Z,81.96
2018-04-30T02:34:54.743Z,83.29
2018-04-30T02:35:54.734Z,82.82
2018-04-30T02:36:54.723Z,82.06
2018-04-30T02:37:54.717Z,82.40
2018-04-30T02:38:54.762Z,83.64
2018-04-30T02:39:54.695Z,84.49
2018-04-30T02:40:54.685Z,84.30
2018-04-30T02:41:54.679Z,83.92
2018-04-30T02:42:54.669Z,84.59
2018-04-30T02:43:54.660Z,84.78
2018-04-30T02:44:54.651Z,85.64
2018-04-30T02:45:54.639Z,85.83
2018-04-30T02:46:54.631Z,85.54
2018-04-30T02:47:54.623Z,85.06
2018-04-30T02:48:54.618Z,85.73
2018-04-30T02:49:54.603Z,85.25
2018-04-30T02:50:54.598Z,85.64
2018-04-30T02:51:54.588Z,85.68
2018-04-30T02:52:54.576Z,85.39
2018-04-30T02:53:54.569Z,84.63
2018-04-30T02:54:54.554Z,84.44
2018-04-30T02:55:54.546Z,84.16
2018-04-30T02:56:54.536Z,84.72
2018-04-30T02:57:54.527Z,85.64
2018-04-30T02:58:54.515Z,84.97
2018-04-30T02:59:54.509Z,85.25
2018-04-30T03:00:54.498Z,85.77
2018-04-30T03:01:54.489Z,85.30
2018-04-30T03:02:54.482Z,85.73
2018-04-30T03:03:54.473Z,85.83
2018-04-30T03:04:54.460Z,85.16
2018-04-30T03:05:54.449Z,84.88
2018-04-30T03:06:54.439Z,84.97
2018-04-30T03:07:54.435Z,84.88
2018-04-30T03:08:54.423Z,85.45
2018-04-30T03:09:54.412Z,86.21
2018-04-30T03:10:54.401Z,85.35
2018-04-30T03:11:54.390Z,85.73
2018-04-30T03:12:54.382Z,86.40
2018-04-30T03:13:54.372Z,86.88
2018-04-30T03:14:54.365Z,86.21
2018-04-30T03:15:54.352Z,86.69
2018-04-30T03:16:54.342Z,85.54
2018-04-30T03:17:54.336Z,85.73
2018-04-30T03:18:54.323Z,86.21
2018-04-30T03:19:54.312Z,87.16
2018-04-30T03:20:54.306Z,85.64
2018-04-30T03:21:54.295Z,86.40
2018-04-30T03:22:54.282Z,86.30
2018-04-30T03:23:54.273Z,86.69
2018-04-30T03:24:54.271Z,87.26
2018-04-30T03:25:54.257Z,87.16
2018-04-30T03:26:54.247Z,87.26
2018-04-30T03:27:54.238Z,87.74
2018-04-30T03:28:54.229Z,87.74
2018-04-30T03:29:54.219Z,87.83
2018-04-30T03:30:54.206Z,88.69
2018-04-30T03:31:54.195Z,87.74
2018-04-30T03:32:54.190Z,88.59
2018-04-30T03:33:54.180Z,88.88
2018-04-30T03:34:54.173Z,88.40
2018-04-30T03:35:54.157Z,88.50
2018-04-30T03:36:54.150Z,87.54
2018-04-30T03:37:54.141Z,86.78
2018-04-30T03:38:54.128Z,86.21
2018-04-30T03:39:54.119Z,85.54
2018-04-30T03:40:54.112Z,84.69
2018-04-30T03:41:54.102Z,84.59
2018-04-30T03:42:54.090Z,83.64
2018-04-30T03:43:54.082Z,83.64
2018-04-30T03:44:54.084Z,85.64
2018-04-30T03:45:54.060Z,86.30
2018-04-30T03:46:54.050Z,87.07
2018-04-30T03:47:54.044Z,85.16
2018-04-30T03:48:54.036Z,85.16
2018-04-30T03:49:54.023Z,86.40
2018-04-30T03:50:54.011Z,86.98
2018-04-30T03:51:54.001Z,86.30
2018-04-30T03:52:53.992Z,86.98
2018-04-30T03:53:53.983Z,85.35
2018-04-30T03:54:53.971Z,85.73
2018-04-30T03:55:53.962Z,85.64
2018-04-30T03:56:53.956Z,85.35
2018-04-30T03:57:53.943Z,85.64
2018-04-30T03:58:53.933Z,84.88
2018-04-30T03:59:53.924Z,85.41
2018-04-30T04:00:53.915Z,86.49
2018-04-30T04:01:53.907Z,84.97
2018-04-30T04:02:53.894Z,85.73
2018-04-30T04:03:53.886Z,84.40
2018-04-30T04:04:53.876Z,83.16
2018-04-30T04:05:53.864Z,82.78
2018-04-30T04:06:53.854Z,81.73
2018-04-30T04:07:53.849Z,82.97
2018-04-30T04:08:53.838Z,82.40
2018-04-30T04:09:53.824Z,81.63
2018-04-30T04:10:53.816Z,81.54
2018-04-30T04:11:53.803Z,82.40
2018-04-30T04:12:53.795Z,82.40
2018-04-30T04:13:53.786Z,83.25
2018-04-30T04:14:53.777Z,83.25
2018-04-30T04:15:53.766Z,83.35
2018-04-30T04:16:53.761Z,84.30
2018-04-30T04:17:53.747Z,83.35
2018-04-30T04:18:53.734Z,83.16
2018-04-30T04:19:53.727Z,79.19
2018-04-30T04:20:53.714Z,79.57
2018-04-30T04:21:53.710Z,80.43
2018-04-30T04:22:53.700Z,79.86
2018-04-30T04:23:53.690Z,80.33
2018-04-30T04:24:53.679Z,78.23
2018-04-30T04:25:53.669Z,78.39
2018-04-30T04:26:53.655Z,79.82
2018-04-30T04:27:53.647Z,81.25
2018-04-30T04:28:53.640Z,82.49
2018-04-30T04:29:53.629Z,82.49
2018-04-30T04:30:53.618Z,81.06
2018-04-30T04:31:53.607Z,82.97
2018-04-30T04:32:53.597Z,83.83
2018-04-30T04:33:53.590Z,84.20
2018-04-30T04:34:53.578Z,84.20
2018-04-30T04:35:53.569Z,83.83
2018-04-30T04:36:53.559Z,84.30
2018-04-30T04:37:53.548Z,83.92
2018-04-30T04:38:53.542Z,83.25
2018-04-30T04:39:53.529Z,83.35
2018-04-30T04:40:53.520Z,84.11
2018-04-30T04:41:53.508Z,84.49
2018-04-30T04:42:53.504Z,84.97
2018-04-30T04:43:53.561Z,85.54
2018-04-30T04:44:53.483Z,86.69
2018-04-30T04:45:53.469Z,86.11
2018-04-30T04:46:53.460Z,84.97
2018-04-30T04:47:53.450Z,85.06
2018-04-30T04:48:53.441Z,84.69
2018-04-30T04:49:53.431Z,84.69
2018-04-30T04:50:53.423Z,85.25
2018-04-30T04:51:53.415Z,84.49
2018-04-30T04:52:53.401Z,85.16
2018-04-30T04:53:53.393Z,85.54
2018-04-30T04:54:53.381Z,84.88
2018-04-30T04:55:53.372Z,84.78
2018-04-30T04:56:53.366Z,85.73
2018-04-30T04:57:53.352Z,85.54
2018-04-30T04:58:53.345Z,86.40
2018-04-30T04:59:53.332Z,85.73
2018-04-30T05:00:53.328Z,84.49
2018-04-30T05:01:53.312Z,83.25
2018-04-30T05:02:53.306Z,84.40
2018-04-30T05:03:53.294Z,83.16
2018-04-30T05:04:53.284Z,83.83
2018-04-30T05:05:53.271Z,84.59
2018-04-30T05:06:53.263Z,83.16
2018-04-30T05:07:53.255Z,84.01
2018-04-30T05:08:53.246Z,83.64
2018-04-30T05:09:53.234Z,83.48
2018-04-30T05:10:53.294Z,83.01
2018-04-30T05:11:53.218Z,82.43
2018-04-30T05:12:53.209Z,83.20
2018-04-30T05:13:53.197Z,82.53
2018-04-30T05:14:53.194Z,82.24
2018-04-30T05:15:53.175Z,81.67
2018-04-30T05:16:53.173Z,82.43
2018-04-30T05:17:53.161Z,83.77
2018-04-30T05:18:53.150Z,81.77
2018-04-30T05:19:53.139Z,82.06
2018-04-30T05:20:53.192Z,82.82
2018-04-30T05:21:53.117Z,82.15
2018-04-30T05:22:53.110Z,81.86
2018-04-30T05:23:53.101Z,82.91
2018-04-30T05:24:53.089Z,83.87
2018-04-30T05:25:53.082Z,83.25
2018-04-30T05:26:53.068Z,84.25
2018-04-30T05:27:53.062Z,84.78
2018-04-30T05:28:53.057Z,85.68
2018-04-30T05:29:53.041Z,84.16
2018-04-30T05:30:53.030Z,83.58
2018-04-30T05:31:53.021Z,82.82
2018-04-30T05:32:53.016Z,83.67
2018-04-30T05:33:53.050Z,84.44
2018-04-30T05:34:52.992Z,84.25
2018-04-30T05:35:52.984Z,83.20
2018-04-30T05:36:52.976Z,84.16
2018-04-30T05:37:52.967Z,83.96
2018-04-30T05:38:52.966Z,83.11
2018-04-30T05:39:52.942Z,81.77
2018-04-30T05:40:52.938Z,81.96
2018-04-30T05:41:52.927Z,82.15
2018-04-30T05:42:52.915Z,81.77
2018-04-30T05:43:52.908Z,81.96
2018-04-30T05:44:52.899Z,80.91
2018-04-30T05:45:52.887Z,81.67
2018-04-30T05:46:52.884Z,82.15
2018-04-30T05:47:52.867Z,81.38
2018-04-30T05:48:52.860Z,83.29
2018-04-30T05:49:52.852Z,81.77
2018-04-30T05:50:52.841Z,81.10
2018-04-30T05:51:52.835Z,82.34
2018-04-30T05:52:52.826Z,81.86
2018-04-30T05:53:52.810Z,80.95
2018-04-30T05:54:52.801Z,81.43
2018-04-30T05:55:52.792Z,81.43
2018-04-30T05:56:52.783Z,83.18
2018-04-30T05:57:52.774Z,80.57
2018-04-30T05:58:52.764Z,79.33
2018-04-30T05:59:52.760Z,79.33
2018-04-30T06:00:52.746Z,79.71
2018-04-30T06:01:52.736Z,79.27
2018-04-30T06:02:52.725Z,78.41
2018-04-30T06:03:52.722Z,78.22
2018-04-30T06:04:52.711Z,78.13
2018-04-30T06:05:52.699Z,77.17
2018-04-30T06:06:52.710Z,77.45
2018-04-30T06:07:52.753Z,76.73
2018-04-30T06:08:52.681Z,77.30
2018-04-30T06:09:52.667Z,77.01
2018-04-30T06:10:52.654Z,76.73
2018-04-30T06:11:52.646Z,74.15
2018-04-30T06:12:52.636Z,73.61
2018-04-30T06:13:52.634Z,73.33
2018-04-30T06:14:52.621Z,74.38
2018-04-30T06:15:52.610Z,73.58
2018-04-30T06:16:52.600Z,73.04
2018-04-30T06:17:52.595Z,72.94
2018-04-30T06:18:52.583Z,71.70
2018-04-30T06:19:52.575Z,71.80
2018-04-30T06:20:52.567Z,71.89
2018-04-30T06:21:52.559Z,71.61
2018-04-30T06:22:52.549Z,71.99
2018-04-30T06:23:52.543Z,71.51
2018-04-30T06:24:52.534Z,72.28
2018-04-30T06:25:52.526Z,71.99
2018-04-30T06:26:52.638Z,71.61
2018-04-30T06:27:52.507Z,70.36
2018-04-30T06:28:52.499Z,71.32
2018-04-30T06:29:52.491Z,71.73
2018-04-30T06:30:52.483Z,71.42
2018-04-30T06:31:52.475Z,70.59
2018-04-30T06:32:52.467Z,70.30
2018-04-30T06:33:52.457Z,69.82
2018-04-30T06:34:52.449Z,70.50
2018-04-30T06:35:52.519Z,70.97
2018-04-30T06:36:52.435Z,70.68
2018-04-30T06:37:52.424Z,69.73
2018-04-30T06:38:52.419Z,69.73
2018-04-30T06:39:52.469Z,68.77
2018-04-30T06:40:52.402Z,68.58
2018-04-30T06:41:52.392Z,69.73
2018-04-30T06:42:52.391Z,69.73
2018-04-30T06:43:52.379Z,69.29
2018-04-30T06:44:52.368Z,68.80
2018-04-30T06:45:52.363Z,67.37
2018-04-30T06:46:52.355Z,67.66
2018-04-30T06:47:52.343Z,68.04
2018-04-30T06:48:52.337Z,67.94
2018-04-30T06:49:52.327Z,68.71
2018-04-30T06:50:52.320Z,68.71
2018-04-30T06:51:52.315Z,68.80
2018-04-30T06:52:52.304Z,67.79
2018-04-30T06:53:52.305Z,67.02
2018-04-30T06:54:52.293Z,66.06
2018-04-30T06:55:52.282Z,66.16
2018-04-30T06:56:52.275Z,65.78
2018-04-30T06:57:52.268Z,65.30
2018-04-30T06:58:52.261Z,65.49
2018-04-30T06:59:52.258Z,65.14
2018-04-30T07:00:52.247Z,64.56
2018-04-30T07:01:52.239Z,64.37
2018-04-30T07:02:52.230Z,64.66
2018-04-30T07:03:52.223Z,63.92
2018-04-30T07:04:52.217Z,62.01
2018-04-30T07:05:52.210Z,63.26
2018-04-30T07:06:52.205Z,62.30
2018-04-30T07:07:52.203Z,62.87
2018-04-30T07:08:52.189Z,61.15
2018-04-30T07:09:52.185Z,62.01
2018-04-30T07:10:52.180Z,62.10
2018-04-30T07:11:52.171Z,61.72
2018-04-30T07:12:52.162Z,61.43
2018-04-30T07:13:52.156Z,60.57
2018-04-30T07:14:52.147Z,61.91
2018-04-30T07:15:52.146Z,62.96
2018-04-30T07:16:52.137Z,62.13
2018-04-30T07:17:52.134Z,60.41
2018-04-30T07:18:52.120Z,60.60
2018-04-30T07:19:52.122Z,60.60
2018-04-30T07:20:52.108Z,60.89
2018-04-30T07:21:52.102Z,60.12
2018-04-30T07:22:52.095Z,59.33
2018-04-30T07:23:52.093Z,60.76
2018-04-30T07:24:52.083Z,60.19
2018-04-30T07:25:52.085Z,60.38
2018-04-30T07:26:52.076Z,61.15
2018-04-30T07:27:52.144Z,60.86
2018-04-30T07:28:52.067Z,59.64
2018-04-30T07:29:52.051Z,59.80
2018-04-30T07:30:52.043Z,59.26
2018-04-30T07:31:52.039Z,59.16
2018-04-30T07:32:52.035Z,58.78
2018-04-30T07:33:52.025Z,58.87
2018-04-30T07:34:52.020Z,57.92
2018-04-30T07:35:52.015Z,58.71
2018-04-30T07:36:52.010Z,58.71
2018-04-30T07:37:52.004Z,58.04
2018-04-30T07:38:51.997Z,57.46
2018-04-30T07:39:51.991Z,57.56
2018-04-30T07:40:51.985Z,56.60
2018-04-30T07:41:51.980Z,56.60
2018-04-30T07:42:51.973Z,56.60
2018-04-30T07:43:51.965Z,56.92
2018-04-30T07:44:51.965Z,55.86
2018-04-30T07:45:51.956Z,56.82
2018-04-30T07:46:51.955Z,55.86
2018-04-30T07:47:51.943Z,55.77
2018-04-30T07:48:51.940Z,56.15
2018-04-30T07:49:51.936Z,55.10
2018-04-30T07:50:51.929Z,54.80
2018-04-30T07:51:51.921Z,54.42
2018-04-30T07:52:51.919Z,55.47
2018-04-30T07:53:51.912Z,55.29
2018-04-30T07:54:51.908Z,54.71
2018-04-30T07:55:51.899Z,53.94
2018-04-30T07:56:51.895Z,54.04
2018-04-30T07:57:51.891Z,54.25
2018-04-30T07:58:51.884Z,54.55
2018-04-30T07:59:51.878Z,54.06
2018-04-30T08:00:51.876Z,54.13
2018-04-30T08:01:51.869Z,54.06
2018-04-30T08:02:51.865Z,53.87
2018-04-30T08:03:51.858Z,53.97
2018-04-30T08:04:51.855Z,54.45
2018-04-30T08:05:51.847Z,54.55
2018-04-30T08:06:51.845Z,52.91
2018-04-30T08:07:51.837Z,53.01
2018-04-30T08:08:51.831Z,53.11
2018-04-30T08:09:51.831Z,52.91
2018-04-30T08:10:51.823Z,53.87
2018-04-30T08:11:51.816Z,52.24
2018-04-30T08:12:51.813Z,52.62
2018-04-30T08:13:51.814Z,52.53
2018-04-30T08:14:51.813Z,52.81
2018-04-30T08:15:51.797Z,53.11
2018-04-30T08:16:51.792Z,53.75
2018-04-30T08:17:51.785Z,54.33
2018-04-30T08:18:51.782Z,53.08
2018-04-30T08:19:51.778Z,53.08
2018-04-30T08:20:51.777Z,52.89
2018-04-30T08:21:51.768Z,52.86
2018-04-30T08:22:51.764Z,53.85
2018-04-30T08:23:51.758Z,53.46
2018-04-30T08:24:51.753Z,53.75
2018-04-30T08:25:51.747Z,52.53
2018-04-30T08:26:51.753Z,52.72
2018-04-30T08:27:51.739Z,52.43
2018-04-30T08:28:51.730Z,51.95
2018-04-30T08:29:51.725Z,51.31
2018-04-30T08:30:51.729Z,51.88
2018-04-30T08:31:51.716Z,49.79
2018-04-30T08:32:51.720Z,50.27
2018-04-30T08:33:51.710Z,50.66
2018-04-30T08:34:51.699Z,49.89
2018-04-30T08:35:51.699Z,49.60
2018-04-30T08:36:51.693Z,50.08
2018-04-30T08:37:51.689Z,51.23
2018-04-30T08:38:51.685Z,51.59
2018-04-30T08:39:51.679Z,51.88
2018-04-30T08:40:51.678Z,51.59
2018-04-30T08:41:51.676Z,51.40
2018-04-30T08:42:51.665Z,51.50
2018-04-30T08:43:51.662Z,50.34
2018-04-30T08:44:51.659Z,50.85
2018-04-30T08:45:51.657Z,50.46
2018-04-30T08:46:51.648Z,50.46
2018-04-30T08:47:51.647Z,49.82
2018-04-30T08:48:51.640Z,48.38
2018-04-30T08:49:51.640Z,47.72
2018-04-30T08:50:51.634Z,47.89
2018-04-30T08:51:51.628Z,50.10
2018-04-30T08:52:51.622Z,48.47
2018-04-30T08:53:51.621Z,48.18
2018-04-30T08:54:51.615Z,48.38
2018-04-30T08:55:51.614Z,49.24
2018-04-30T08:56:51.608Z,48.28
2018-04-30T08:57:51.603Z,48.47
2018-04-30T08:58:51.601Z,49.15
2018-04-30T08:59:51.593Z,48.95
2018-04-30T09:00:51.593Z,49.24
2018-04-30T09:01:51.588Z,49.33
2018-04-30T09:02:51.589Z,48.95
2018-04-30T09:03:51.581Z,47.82
2018-04-30T09:04:51.583Z,47.99
2018-04-30T09:05:51.574Z,47.41
2018-04-30T09:06:51.572Z,47.31
2018-04-30T09:07:51.567Z,46.74
2018-04-30T09:08:51.563Z,47.31
2018-04-30T09:09:51.562Z,47.20
2018-04-30T09:10:51.553Z,46.81
2018-04-30T09:11:51.550Z,48.45
2018-04-30T09:12:51.547Z,47.13
2018-04-30T09:13:51.544Z,48.08
2018-04-30T09:14:51.548Z,47.31
2018-04-30T09:15:51.533Z,48.08
2018-04-30T09:16:51.527Z,47.51
2018-04-30T09:17:51.525Z,46.36
2018-04-30T09:18:51.521Z,47.61
2018-04-30T09:19:51.516Z,46.84
2018-04-30T09:20:51.511Z,46.26
2018-04-30T09:21:51.511Z,46.74
2018-04-30T09:22:51.505Z,46.14
2018-04-30T09:23:51.537Z,45.87
2018-04-30T09:24:51.499Z,46.33
2018-04-30T09:25:51.495Z,47.87
2018-04-30T09:26:51.493Z,46.33
2018-04-30T09:27:51.484Z,47.13
2018-04-30T09:28:51.483Z,46.93
2018-04-30T09:29:51.479Z,46.06
2018-04-30T09:30:51.474Z,45.59
2018-04-30T09:31:51.469Z,46.16
2018-04-30T09:32:51.469Z,45.85
2018-04-30T09:33:51.464Z,46.72
2018-04-30T09:34:51.458Z,47.10
2018-04-30T09:35:51.456Z,46.14
2018-04-30T09:36:51.452Z,46.62
2018-04-30T09:37:51.445Z,46.72
2018-04-30T09:38:51.446Z,47.97
2018-04-30T09:39:51.445Z,47.20
2018-04-30T09:40:51.434Z,47.30
2018-04-30T09:41:51.429Z,46.72
2018-04-30T09:42:51.427Z,47.56
2018-04-30T09:43:51.421Z,46.98
2018-04-30T09:44:51.418Z,48.33
2018-04-30T09:45:51.413Z,47.66
2018-04-30T09:46:51.408Z,48.33
2018-04-30T09:47:51.411Z,48.04
2018-04-30T09:48:51.401Z,47.75
2018-04-30T09:49:51.397Z,47.08
2018-04-30T09:50:51.391Z,45.83
2018-04-30T09:51:51.391Z,47.27
2018-04-30T09:52:51.383Z,47.94
2018-04-30T09:53:51.379Z,48.04
2018-04-30T09:54:51.375Z,48.16
2018-04-30T09:55:51.372Z,46.62
2018-04-30T09:56:51.371Z,46.23
2018-04-30T09:57:51.464Z,46.23
2018-04-30T09:58:51.356Z,45.85
2018-04-30T09:59:51.353Z,45.76
2018-04-30T10:00:51.348Z,45.95
2018-04-30T10:01:51.345Z,44.89
2018-04-30T10:02:51.341Z,44.79
2018-04-30T10:03:51.348Z,43.93
2018-04-30T10:04:51.333Z,43.76
2018-04-30T10:05:51.328Z,43.37
2018-04-30T10:06:51.323Z,44.62
2018-04-30T10:07:51.315Z,42.99
2018-04-30T10:08:51.313Z,42.22
2018-04-30T10:09:51.308Z,43.28
2018-04-30T10:10:51.307Z,43.18
2018-04-30T10:11:51.302Z,42.41
2018-04-30T10:12:51.298Z,42.41
2018-04-30T10:13:51.294Z,42.63
2018-04-30T10:14:51.289Z,42.63
2018-04-30T10:15:51.294Z,41.38
2018-04-30T10:16:51.283Z,41.66
2018-04-30T10:17:51.305Z,42.14
2018-04-30T10:18:51.275Z,41.76
2018-04-30T10:19:51.269Z,41.66
2018-04-30T10:20:51.271Z,42.05
2018-04-30T10:21:51.259Z,42.91
2018-04-30T10:22:51.258Z,42.05
2018-04-30T10:23:51.265Z,42.05
2018-04-30T10:24:51.247Z,43.40
2018-04-30T10:25:51.244Z,44.07
2018-04-30T10:26:51.242Z,43.97
2018-04-30T10:27:51.235Z,43.11
2018-04-30T10:28:51.237Z,43.88
2018-04-30T10:29:51.232Z,43.59
2018-04-30T10:30:51.224Z,43.01
2018-04-30T10:31:51.220Z,43.97
2018-04-30T10:32:51.216Z,42.82
2018-04-30T10:33:51.288Z,43.01
2018-04-30T10:34:51.210Z,42.24
2018-04-30T10:35:51.205Z,42.14
2018-04-30T10:36:51.207Z,41.08
2018-04-30T10:37:51.276Z,42.05
2018-04-30T10:38:51.193Z,42.05
2018-04-30T10:39:51.193Z,42.72
2018-04-30T10:40:51.194Z,42.53
2018-04-30T10:41:51.185Z,42.93
2018-04-30T10:42:51.183Z,41.88
2018-04-30T10:43:51.178Z,41.88
2018-04-30T10:44:51.169Z,41.59
2018-04-30T10:45:51.240Z,42.05
2018-04-30T10:46:51.163Z,43.49
2018-04-30T10:47:51.160Z,42.53
2018-04-30T10:48:51.159Z,42.07
2018-04-30T10:49:51.155Z,41.30
2018-04-30T10:50:51.151Z,42.43
2018-04-30T10:51:51.146Z,39.91
2018-04-30T10:52:51.140Z,43.57
2018-04-30T10:53:51.139Z,42.80
2018-04-30T10:54:51.135Z,43.95
2018-04-30T10:55:51.134Z,44.05
2018-04-30T10:56:51.128Z,44.24
2018-04-30T10:57:51.124Z,42.63
2018-04-30T10:58:51.120Z,42.63
2018-04-30T10:59:51.115Z,42.33
2018-04-30T11:00:51.114Z,40.99
2018-04-30T11:01:51.114Z,43.68
2018-04-30T11:02:51.106Z,43.68
2018-04-30T11:03:51.102Z,42.70
2018-04-30T11:04:51.095Z,41.93
2018-04-30T11:05:51.097Z,42.32
2018-04-30T11:06:51.091Z,42.70
2018-04-30T11:07:51.086Z,42.89
2018-04-30T11:08:51.082Z,43.84
2018-04-30T11:09:51.081Z,44.89
2018-04-30T11:10:51.072Z,43.74
2018-04-30T11:11:51.072Z,42.03
2018-04-30T11:12:51.066Z,41.83
2018-04-30T11:13:51.059Z,41.35
2018-04-30T11:14:51.130Z,40.61
2018-04-30T11:15:51.054Z,41.08
2018-04-30T11:16:51.050Z,39.64
2018-04-30T11:17:51.047Z,40.22
2018-04-30T11:18:51.042Z,40.99
2018-04-30T11:19:51.041Z,39.47
2018-04-30T11:20:51.035Z,41.11
2018-04-30T11:21:51.034Z,38.70
2018-04-30T11:22:51.029Z,38.22
2018-04-30T11:23:51.024Z,38.51
2018-04-30T11:24:51.022Z,38.41
2018-04-30T11:25:51.015Z,38.12
2018-04-30T11:26:51.011Z,39.18
2018-04-30T11:27:51.007Z,39.78
2018-04-30T11:28:51.006Z,38.72
2018-04-30T11:29:51.002Z,39.12
2018-04-30T11:30:50.998Z,37.87
2018-04-30T11:31:50.993Z,38.53
2018-04-30T11:32:50.993Z,38.33
2018-04-30T11:33:50.986Z,39.01
2018-04-30T11:34:50.983Z,38.53
2018-04-30T11:35:50.979Z,38.53
2018-04-30T11:36:50.978Z,38.24
2018-04-30T11:37:50.971Z,37.76
2018-04-30T11:38:50.975Z,38.33
2018-04-30T11:39:50.966Z,37.56
2018-04-30T11:40:50.964Z,37.56
2018-04-30T11:41:50.959Z,38.33
2018-04-30T11:42:50.954Z,37.66
2018-04-30T11:43:51.024Z,36.81
2018-04-30T11:44:50.951Z,37.76
2018-04-30T11:45:50.952Z,37.19
2018-04-30T11:46:50.944Z,37.01
2018-04-30T11:47:50.939Z,37.01
2018-04-30T11:48:50.936Z,36.61
2018-04-30T11:49:50.940Z,34.88
2018-04-30T11:50:50.928Z,35.64
2018-04-30T11:51:50.925Z,35.54
2018-04-30T11:52:50.923Z,36.10
2018-04-30T11:53:50.920Z,36.19
2018-04-30T11:54:50.916Z,37.06
2018-04-30T11:55:50.914Z,37.54
2018-04-30T11:56:50.912Z,37.16
2018-04-30T11:57:50.909Z,36.87
2018-04-30T11:58:50.905Z,36.87
2018-04-30T11:59:50.898Z,36.97
2018-04-30T12:00:50.894Z,37.83
2018-04-30T12:01:50.892Z,36.77
2018-04-30T12:02:50.891Z,37.74
2018-04-30T12:03:50.887Z,37.93
2018-04-30T12:04:50.888Z,38.22
2018-04-30T12:05:50.877Z,37.72
2018-04-30T12:06:50.878Z,37.52
2018-04-30T12:07:50.870Z,37.81
2018-04-30T12:08:50.866Z,38.10
2018-04-30T12:09:50.867Z,37.43
2018-04-30T12:10:50.861Z,34.74
2018-04-30T12:11:50.855Z,35.97
2018-04-30T12:12:50.862Z,35.41
2018-04-30T12:13:50.851Z,36.08
2018-04-30T12:14:50.854Z,36.56
2018-04-30T12:15:50.839Z,36.66
2018-04-30T12:16:50.837Z,35.22
2018-04-30T12:17:50.837Z,34.06
2018-04-30T12:18:50.828Z,33.95
2018-04-30T12:19:50.827Z,34.54
2018-04-30T12:20:50.822Z,33.20
2018-04-30T12:21:50.850Z,34.25
2018-04-30T12:22:50.813Z,35.49
2018-04-30T12:23:50.814Z,33.48
2018-04-30T12:24:50.809Z,32.62
2018-04-30T12:25:50.803Z,33.77
2018-04-30T12:26:50.797Z,33.58
2018-04-30T12:27:50.803Z,33.87
2018-04-30T12:28:50.794Z,34.45
2018-04-30T12:29:50.915Z,33.29
2018-04-30T12:30:50.784Z,35.31
2018-04-30T12:31:50.779Z,32.71
2018-04-30T12:32:50.778Z,32.71
2018-04-30T12:33:50.776Z,31.37
2018-04-30T12:34:50.765Z,30.88
2018-04-30T12:35:50.766Z,31.75
2018-04-30T12:36:50.759Z,32.43
2018-04-30T12:37:50.758Z,32.14
2018-04-30T12:38:50.754Z,30.31
2018-04-30T12:39:50.746Z,31.83
2018-04-30T12:40:50.742Z,31.06
2018-04-30T12:41:50.745Z,31.74
2018-04-30T12:42:50.737Z,31.83
2018-04-30T12:43:50.733Z,31.26
2018-04-30T12:44:50.727Z,31.34
2018-04-30T12:45:50.724Z,34.14
2018-04-30T12:46:50.722Z,33.95
2018-04-30T12:47:50.717Z,32.98
2018-04-30T12:48:50.711Z,32.10
2018-04-30T12:49:50.784Z,33.07
2018-04-30T12:50:50.768Z,32.78
2018-04-30T12:51:50.698Z,31.43
2018-04-30T12:52:50.696Z,32.39